Time;durP1;ratioP1;P1;durP2;ratioP2;P2;SDS_P1;SDS_P2;PMS_P1;PMS_P2;Temp;Humidity;BMP_temperature;BMP_pressure;BME280_temperature;BME280_humidity;BME280_pressure;Samples;Min_cycle;Max_cycle;Signal;HPM_P1;HPM_P2
2022/04/20 00:01:53;;;;;;;5.93;4.60;;;8.30;99.90;;;;;;5076105;28;20913;-58
2022/04/20 00:04:20;;;;;;;4.30;3.90;;;8.10;99.90;;;;;;5076624;28;20920;-57
2022/04/20 00:06:52;;;;;;;7.10;3.80;;;8.00;99.90;;;;;;5076978;28;20492;-56
2022/04/20 00:09:22;;;;;;;10.10;3.90;;;8.00;99.90;;;;;;5077023;28;20817;-58
2022/04/20 00:12:08;;;;;;;6.33;4.03;;;7.90;99.90;;;;;;5076580;28;20878;-57
2022/04/20 00:14:39;;;;;;;4.30;3.90;;;7.80;99.90;;;;;;5076702;28;20472;-57
2022/04/20 00:17:09;;;;;;;4.17;3.77;;;7.70;99.90;;;;;;5076943;28;20476;-57
2022/04/20 00:19:36;;;;;;;4.53;3.70;;;7.60;99.90;;;;;;5076800;28;20905;-57
2022/04/20 00:22:03;;;;;;;4.50;3.70;;;7.60;99.90;;;;;;5075756;28;20980;-57
2022/04/20 00:24:38;;;;;;;7.60;4.40;;;7.50;99.90;;;;;;5076431;28;20468;-58
2022/04/20 00:27:06;;;;;;;4.47;4.07;;;7.50;99.90;;;;;;5076614;28;20471;-56
2022/04/20 00:29:35;;;;;;;4.27;3.87;;;7.40;99.90;;;;;;5076733;28;20461;-57
2022/04/20 00:32:03;;;;;;;5.87;4.30;;;7.40;99.90;;;;;;5076485;28;20453;-58
2022/04/20 00:34:32;;;;;;;5.37;4.10;;;7.40;99.90;;;;;;5076820;28;20465;-56
2022/04/20 00:37:00;;;;;;;4.57;3.90;;;7.40;99.90;;;;;;5076261;28;20500;-57
2022/04/20 00:39:27;;;;;;;4.97;4.27;;;7.40;99.90;;;;;;5076285;28;20531;-57
2022/04/20 00:41:58;;;;;;;4.50;4.00;;;7.20;99.90;;;;;;5076147;28;20870;-57
2022/04/20 00:44:25;;;;;;;5.23;3.97;;;7.10;99.90;;;;;;5076277;28;20555;-57
2022/04/20 00:46:54;;;;;;;5.50;3.90;;;7.10;99.90;;;;;;5076223;28;20509;-57
2022/04/20 00:49:30;;;;;;;5.50;4.30;;;7.10;99.90;;;;;;5076785;28;20465;-53
2022/04/20 00:52:04;;;;;;;4.93;4.17;;;7.10;99.90;;;;;;5077037;28;20464;-59
2022/04/20 00:54:31;;;;;;;4.47;3.90;;;7.10;99.90;;;;;;5075922;28;20504;-58
2022/04/20 00:57:08;;;;;;;3.63;3.33;;;7.00;99.90;;;;;;5075888;28;20519;-57
2022/04/20 00:59:41;;;;;;;3.90;3.50;;;7.00;99.90;;;;;;5076105;28;20952;-57
2022/04/20 01:02:08;;;;;;;5.07;3.83;;;7.00;99.90;;;;;;5076369;28;20492;-57
2022/04/20 01:04:47;;;;;;;4.07;3.50;;;7.00;99.90;;;;;;5075382;28;20500;-58
2022/04/20 01:07:18;;;;;;;4.90;4.50;;;6.80;99.90;;;;;;5075880;28;20475;-58
2022/04/20 01:09:49;;;;;;;8.80;7.20;;;6.80;99.90;;;;;;5079621;28;20461;-58
2022/04/20 01:12:21;;;;;;;14.40;7.67;;;6.70;99.90;;;;;;5079542;28;20500;-58
2022/04/20 01:14:58;;;;;;;9.03;7.73;;;6.70;99.90;;;;;;5078908;28;20465;-55
2022/04/20 01:17:25;;;;;;;5.10;4.37;;;6.70;99.90;;;;;;5079664;28;20457;-58
2022/04/20 01:19:57;;;;;;;5.73;4.33;;;6.60;99.90;;;;;;5078724;28;20744;-57
2022/04/20 01:22:32;;;;;;;5.60;4.90;;;6.60;99.90;;;;;;5079283;28;20538;-57
2022/04/20 01:24:59;;;;;;;5.73;4.40;;;6.60;99.90;;;;;;5079308;28;20461;-56
2022/04/20 01:27:32;;;;;;;4.17;3.80;;;6.50;99.90;;;;;;5079871;28;20893;-57
2022/04/20 01:30:10;;;;;;;5.40;3.93;;;6.40;99.90;;;;;;5079086;28;20457;-57
2022/04/20 01:32:37;;;;;;;5.90;4.07;;;6.40;99.90;;;;;;5079735;28;20515;-56
2022/04/20 01:35:12;;;;;;;7.87;4.03;;;6.40;99.90;;;;;;5079199;28;20554;-57
2022/04/20 01:37:41;;;;;;;10.30;5.03;;;6.50;99.90;;;;;;5078963;28;20457;-56
2022/04/20 01:40:09;;;;;;;6.13;4.27;;;6.40;99.90;;;;;;5078911;28;20481;-57
2022/04/20 01:42:39;;;;;;;4.77;4.03;;;6.40;99.90;;;;;;5079407;28;20489;-56
2022/04/20 01:45:11;;;;;;;6.57;4.40;;;6.40;99.90;;;;;;5078758;28;20832;-57
2022/04/20 01:47:38;;;;;;;5.57;4.30;;;6.30;99.90;;;;;;5079548;28;20518;-55
2022/04/20 01:50:09;;;;;;;4.77;4.37;;;6.30;99.90;;;;;;5078921;28;20468;-58
2022/04/20 01:52:36;;;;;;;4.50;4.10;;;6.30;99.90;;;;;;5079313;28;20877;-57
2022/04/20 01:55:13;;;;;;;5.07;3.83;;;6.20;99.90;;;;;;5078406;28;20469;-57
2022/04/20 01:57:40;;;;;;;4.90;4.00;;;6.20;99.90;;;;;;5077999;28;20542;-57
2022/04/20 02:00:10;;;;;;;5.83;4.20;;;6.10;99.90;;;;;;5079198;28;20516;-58
2022/04/20 02:02:43;;;;;;;5.10;4.20;;;6.10;99.90;;;;;;5078843;28;20493;-57
2022/04/20 02:05:14;;;;;;;4.63;4.20;;;6.00;99.90;;;;;;5078877;28;20461;-57
2022/04/20 02:07:44;;;;;;;4.07;3.67;;;5.90;99.90;;;;;;5078310;28;20469;-57
2022/04/20 02:10:15;;;;;;;4.50;4.10;;;5.90;99.90;;;;;;5078464;28;20470;-57
2022/04/20 02:12:42;;;;;;;5.53;4.20;;;5.90;99.90;;;;;;5078185;28;20457;-57
2022/04/20 02:15:20;;;;;;;3.70;3.30;;;5.90;99.90;;;;;;5078709;28;20883;-58
2022/04/20 02:17:49;;;;;;;4.33;3.70;;;5.80;99.90;;;;;;5077901;28;20553;-55
2022/04/20 02:20:21;;;;;;;4.37;3.97;;;5.70;99.90;;;;;;5078471;28;20551;-57
2022/04/20 02:22:53;;;;;;;5.03;3.97;;;5.70;99.90;;;;;;5077765;28;20817;-57
2022/04/20 02:25:32;;;;;;;4.00;3.40;;;5.60;99.90;;;;;;5078727;28;20516;-56
2022/04/20 02:28:02;;;;;;;4.17;3.77;;;5.60;99.90;;;;;;5077890;28;20576;-57
2022/04/20 02:30:35;;;;;;;4.20;3.80;;;5.60;99.90;;;;;;5077928;28;20465;-57
2022/04/20 02:33:07;;;;;;;4.27;3.60;;;5.50;99.90;;;;;;5077535;28;20468;-58
2022/04/20 02:35:40;;;;;;;4.67;3.80;;;5.50;99.90;;;;;;5078512;28;20486;-58
2022/04/20 02:38:11;;;;;;;7.07;3.70;;;5.50;99.90;;;;;;5077668;28;20465;-57
2022/04/20 02:40:41;;;;;;;5.43;3.70;;;5.50;99.90;;;;;;5077853;28;20534;-56
2022/04/20 02:43:08;;;;;;;4.83;4.30;;;5.40;99.90;;;;;;5077903;28;20538;-56
2022/04/20 02:45:35;;;;;;;4.03;3.63;;;5.40;99.90;;;;;;5078306;28;20510;-56
2022/04/20 02:48:02;;;;;;;4.80;4.20;;;5.40;99.90;;;;;;5077571;28;20892;-57
2022/04/20 02:50:29;;;;;;;5.33;4.83;;;5.40;99.90;;;;;;5077572;28;20750;-57
2022/04/20 02:52:57;;;;;;;6.47;3.80;;;5.30;99.90;;;;;;5077606;28;20457;-57
2022/04/20 02:55:24;;;;;;;5.90;4.30;;;5.30;99.90;;;;;;5078009;28;20811;-55
2022/04/20 02:57:58;;;;;;;5.60;4.30;;;5.20;99.90;;;;;;5077484;28;20783;-56
2022/04/20 03:00:25;;;;;;;4.10;3.60;;;5.30;99.90;;;;;;5077228;28;20475;-58
2022/04/20 03:02:55;;;;;;;4.50;3.77;;;5.30;1.00;;;;;;5077484;28;20486;-58
2022/04/20 03:05:22;;;;;;;5.87;3.50;;;5.20;1.00;;;;;;5077940;28;20467;-55
2022/04/20 03:07:51;;;;;;;5.17;4.10;;;5.30;1.00;;;;;;5077644;28;20469;-57
2022/04/20 03:10:18;;;;;;;4.40;4.00;;;5.20;1.00;;;;;;5076537;28;20461;-58
2022/04/20 03:12:47;;;;;;;4.47;4.00;;;5.10;1.00;;;;;;5077072;28;20469;-57
2022/04/20 03:15:17;;;;;;;5.87;4.63;;;5.10;1.00;;;;;;5077740;28;20462;-57
2022/04/20 03:17:47;;;;;;;4.93;4.43;;;5.00;1.00;;;;;;5077547;28;20816;-58
2022/04/20 03:20:16;;;;;;;5.93;4.17;;;5.00;1.00;;;;;;5076386;28;20515;-57
2022/04/20 03:22:43;;;;;;;4.90;4.07;;;5.00;1.00;;;;;;5077542;28;20559;-58
2022/04/20 03:25:11;;;;;;;6.40;3.93;;;5.00;1.00;;;;;;5076884;28;20564;-57
2022/04/20 03:27:38;;;;;;;4.53;4.13;;;4.90;1.00;;;;;;5077207;28;20465;-56
2022/04/20 03:30:12;;;;;;;5.27;4.20;;;4.80;1.00;;;;;;5076961;28;20855;-58
2022/04/20 03:32:47;;;;;;;9.10;4.27;;;4.80;1.00;;;;;;5076322;28;20526;-58
2022/04/20 03:35:17;;;;;;;5.30;4.37;;;4.90;1.00;;;;;;5076884;28;20465;-57
2022/04/20 03:37:47;;;;;;;7.13;4.80;;;4.90;1.00;;;;;;5077480;28;20916;-58
2022/04/20 03:40:14;;;;;;;6.70;4.73;;;4.90;1.00;;;;;;5076136;28;20485;-57
2022/04/20 03:42:46;;;;;;;5.07;4.57;;;4.90;1.00;;;;;;5077838;28;20489;-58
2022/04/20 03:45:15;;;;;;;6.23;4.37;;;4.90;1.00;;;;;;5076793;28;20464;-58
2022/04/20 03:47:47;;;;;;;7.97;4.60;;;4.90;1.00;;;;;;5076662;28;20462;-57
2022/04/20 03:50:16;;;;;;;5.43;4.10;;;4.90;1.00;;;;;;5076238;28;20465;-57
2022/04/20 03:52:48;;;;;;;4.30;3.80;;;4.80;1.00;;;;;;5076332;28;20515;-58
2022/04/20 03:55:15;;;;;;;6.50;4.60;;;4.80;1.00;;;;;;5076243;28;20466;-58
2022/04/20 03:57:42;;;;;;;4.90;3.83;;;4.70;1.00;;;;;;5075421;28;20515;-58
2022/04/20 04:00:15;;;;;;;6.60;3.93;;;4.60;1.00;;;;;;5075634;28;20881;-57
2022/04/20 04:02:47;;;;;;;5.23;4.03;;;4.60;1.00;;;;;;5075976;28;20865;-57
2022/04/20 04:05:17;;;;;;;4.80;3.80;;;4.60;1.00;;;;;;5076631;28;20746;-57
2022/04/20 04:07:44;;;;;;;4.70;4.00;;;4.60;1.00;;;;;;5077206;28;20461;-57
2022/04/20 04:10:11;;;;;;;4.50;3.97;;;4.50;1.00;;;;;;5076892;28;20464;-56
2022/04/20 04:12:41;;;;;;;5.17;4.30;;;4.50;1.00;;;;;;5075920;28;20469;-58
2022/04/20 04:15:09;;;;;;;6.20;3.90;;;4.50;1.00;;;;;;5075876;28;20474;-57
2022/04/20 04:17:41;;;;;;;3.93;3.50;;;4.40;1.00;;;;;;5056745;28;20458;-57
2022/04/20 04:20:14;;;;;;;4.60;3.60;;;4.40;1.00;;;;;;5056636;28;20560;-58
2022/04/20 04:22:41;;;;;;;4.43;4.03;;;4.40;1.00;;;;;;5056811;28;20816;-58
2022/04/20 04:25:10;;;;;;;8.00;3.80;;;4.30;1.00;;;;;;5056840;28;20520;-57
2022/04/20 04:27:37;;;;;;;5.90;3.80;;;4.30;1.00;;;;;;5072619;28;20461;-58
2022/04/20 04:30:04;;;;;;;5.63;4.20;;;4.20;1.00;;;;;;5076787;28;20457;-58
2022/04/20 04:32:32;;;;;;;4.50;3.93;;;4.30;1.00;;;;;;5075716;28;20457;-58
2022/04/20 04:35:02;;;;;;;4.77;4.00;;;4.30;1.00;;;;;;5076032;28;20464;-57
2022/04/20 04:37:39;;;;;;;5.53;4.40;;;4.20;1.00;;;;;;5075992;28;20472;-57
2022/04/20 04:40:08;;;;;;;5.57;3.67;;;4.20;1.00;;;;;;5076169;28;20881;-57
2022/04/20 04:42:38;;;;;;;5.63;3.70;;;4.30;1.00;;;;;;5077363;28;20461;-57
2022/04/20 04:50:46;;;;;;;4.97;4.00;;;4.30;1.00;;;;;;5079915;28;20518;-57
2022/04/20 04:53:23;;;;;;;8.43;3.30;;;4.30;1.00;;;;;;5079933;28;20461;-58
2022/04/20 04:55:50;;;;;;;18.17;12.30;;;4.40;1.00;;;;;;5078440;28;20806;-57
2022/04/20 04:58:20;;;;;;;120.70;71.40;;;4.40;1.00;;;;;;5079129;28;20472;-57
2022/04/20 05:00:47;;;;;;;22.43;16.27;;;4.30;1.00;;;;;;5079629;28;20460;-58
2022/04/20 05:03:15;;;;;;;13.27;10.43;;;4.40;1.00;;;;;;5079651;28;20975;-56
2022/04/20 05:05:45;;;;;;;22.40;20.30;;;4.40;1.00;;;;;;5080544;28;20487;-57
2022/04/20 05:08:15;;;;;;;8.97;8.07;;;4.40;1.00;;;;;;5079749;28;20462;-57
2022/04/20 05:10:43;;;;;;;6.00;5.23;;;4.40;1.00;;;;;;5079994;28;20461;-56
2022/04/20 05:13:11;;;;;;;6.53;5.07;;;4.40;1.00;;;;;;5079669;28;20511;-57
2022/04/20 05:15:38;;;;;;;6.90;4.13;;;4.50;1.00;;;;;;5080028;28;20899;-57
2022/04/20 05:18:07;;;;;;;15.47;14.20;;;4.50;1.00;;;;;;5079697;28;20461;-57
2022/04/20 05:20:37;;;;;;;21.37;19.63;;;4.60;1.00;;;;;;5079573;28;20458;-55
2022/04/20 05:23:11;;;;;;;16.13;14.73;;;4.60;1.00;;;;;;5079504;28;20594;-57
2022/04/20 05:25:38;;;;;;;16.37;15.00;;;4.60;1.00;;;;;;5079818;28;20522;-57
2022/04/20 05:28:09;;;;;;;12.70;11.50;;;4.70;1.00;;;;;;5079330;28;20466;-57
2022/04/20 05:30:46;;;;;;;9.30;8.50;;;4.80;1.00;;;;;;5078504;28;20472;-58
2022/04/20 05:36:09;;;;;;;8.33;7.70;;;5.10;1.00;;;;;;5079679;28;20560;-57
2022/04/20 05:44:09;;;;;;;10.60;5.13;;;5.50;1.00;;;;;;5066741;28;20480;-57
2022/04/20 05:46:39;;;;;;;6.70;5.37;;;5.50;1.00;;;;;;5078310;28;20551;-55
2022/04/20 05:49:12;;;;;;;7.30;5.00;;;5.60;1.00;;;;;;5079505;28;20465;-58
2022/04/20 05:51:42;;;;;;;6.00;5.40;;;5.80;1.00;;;;;;5079142;28;20461;-58
2022/04/20 05:54:09;;;;;;;6.80;4.70;;;6.00;1.00;;;;;;5078699;28;20516;-58
2022/04/20 05:56:36;;;;;;;5.93;5.40;;;6.20;99.90;;;;;;5077968;28;20465;-58
2022/04/20 05:59:03;;;;;;;12.37;5.63;;;6.30;99.90;;;;;;5078956;28;20896;-57
2022/04/20 06:01:36;;;;;;;9.53;5.53;;;6.40;99.90;;;;;;5078008;28;20463;-57
2022/04/20 06:04:08;;;;;;;10.23;5.70;;;6.60;99.90;;;;;;5078550;28;20495;-58
2022/04/20 06:06:35;;;;;;;12.30;4.60;;;6.90;99.90;;;;;;5078695;28;20556;-58
2022/04/20 06:09:19;;;;;;;10.17;6.00;;;7.10;99.90;;;;;;5077671;28;20461;-58
2022/04/20 06:11:55;;;;;;;23.13;8.93;;;7.30;99.90;;;;;;5077888;28;20751;-59
2022/04/20 06:14:22;;;;;;;10.90;7.83;;;7.60;99.90;;;;;;5078324;28;20464;-58
2022/04/20 06:16:52;;;;;;;8.50;6.20;;;7.90;99.90;;;;;;5077737;28;20469;-58
2022/04/20 06:19:22;;;;;;;14.23;10.00;;;8.30;99.90;;;;;;5078096;28;20814;-59
2022/04/20 06:21:55;;;;;;;10.50;6.47;;;8.70;99.90;;;;;;5078436;28;20472;-58
2022/04/20 06:24:22;;;;;;;11.20;7.10;;;8.90;99.90;;;;;;5075278;28;20493;-59
2022/04/20 06:26:49;;;;;;;8.53;5.90;;;9.20;99.90;;;;;;5078008;28;20522;-59
2022/04/20 06:29:19;;;;;;;9.53;8.47;;;9.60;99.90;;;;;;5077633;28;20463;-59
2022/04/20 06:31:45;;;;;;;8.17;6.43;;;9.90;99.90;;;;;;5078126;28;20467;-59
2022/04/20 06:34:14;;;;;;;5.47;4.70;;;10.30;99.90;;;;;;5077393;28;20497;-58
2022/04/20 06:36:43;;;;;;;7.73;4.70;;;10.50;99.90;;;;;;5077115;28;20519;-60
2022/04/20 06:39:10;;;;;;;6.50;4.10;;;10.80;99.90;;;;;;5076277;28;20465;-59
2022/04/20 06:41:37;;;;;;;5.50;3.67;;;11.10;99.90;;;;;;5077413;28;20530;-58
2022/04/20 06:44:07;;;;;;;6.37;4.10;;;11.30;99.90;;;;;;5077754;28;20485;-59
2022/04/20 06:46:34;;;;;;;5.73;3.63;;;11.50;99.90;;;;;;5077620;28;20468;-59
2022/04/20 06:49:04;;;;;;;4.73;4.23;;;11.80;99.90;;;;;;5076848;28;20548;-58
2022/04/20 06:58:31;;;;;;;4.87;3.87;;;12.00;99.90;;;;;;5078088;28;20508;-60
2022/04/20 06:59:58;;;;;;;6.27;3.87;;;12.80;99.90;;;;;;5042708;28;20532;-60
2022/04/20 07:02:28;;;;;;;5.17;3.63;;;13.10;99.90;;;;;;5077022;28;20515;-60
2022/04/20 07:04:55;;;;;;;4.53;4.07;;;13.40;99.90;;;;;;5077443;28;20495;-60
2022/04/20 07:07:26;;;;;;;4.10;3.60;;;13.50;99.90;;;;;;5075884;28;20461;-60
2022/04/20 07:09:55;;;;;;;4.53;3.80;;;13.00;99.90;;;;;;5064183;28;20469;-61
2022/04/20 07:12:22;;;;;;;4.70;4.30;;;13.10;99.90;;;;;;5056249;28;20797;-60
2022/04/20 07:14:52;;;;;;;6.90;4.37;;;13.60;99.90;;;;;;5066163;28;20505;-61
2022/04/20 07:17:18;;;;;;;5.27;4.77;;;14.00;99.90;;;;;;5077149;28;20745;-60
2022/04/20 07:19:50;;;;;;;4.93;4.53;;;13.70;99.90;;;;;;5076810;28;20518;-60
2022/04/20 07:22:17;;;;;;;6.83;4.73;;;13.30;99.90;;;;;;5056848;28;20462;-60
2022/04/20 07:24:49;;;;;;;6.53;4.50;;;13.90;99.90;;;;;;5062621;28;20481;-61
2022/04/20 07:27:21;;;;;;;6.50;4.90;;;14.50;99.90;;;;;;5077604;28;20457;-60
2022/04/20 07:29:51;;;;;;;4.47;4.07;;;15.00;99.90;;;;;;5077546;28;20461;-61
2022/04/20 07:32:21;;;;;;;4.73;4.23;;;15.20;99.90;;;;;;5075842;28;20534;-60
2022/04/20 07:34:51;;;;;;;4.10;3.70;;;15.60;99.90;;;;;;5076685;28;20515;-60
2022/04/20 07:37:23;;;;;;;3.73;3.43;;;15.80;99.90;;;;;;5077313;28;20501;-61
2022/04/20 07:39:55;;;;;;;5.47;3.90;;;15.80;99.90;;;;;;5076420;28;20497;-61
2022/04/20 07:42:26;;;;;;;5.33;4.83;;;15.80;99.90;;;;;;5076617;28;20598;-61
2022/04/20 07:44:56;;;;;;;4.50;4.10;;;16.20;99.90;;;;;;5076953;28;20500;-61
2022/04/20 07:47:29;;;;;;;5.23;3.47;;;16.40;99.90;;;;;;5076502;28;20465;-61
2022/04/20 07:52:49;;;;;;;3.23;2.93;;;16.60;99.90;;;;;;5069740;28;20515;-61
2022/04/20 07:55:20;;;;;;;4.90;3.80;;;16.80;99.90;;;;;;5077530;28;20564;-60
2022/04/20 07:57:49;;;;;;;5.33;3.90;;;16.70;99.90;;;;;;5076515;28;20898;-60
2022/04/20 08:00:34;;;;;;;3.30;3.00;;;16.70;99.90;;;;;;5076090;28;20492;-60
2022/04/20 08:03:12;;;;;;;3.63;3.33;;;16.80;99.90;;;;;;5076252;28;20954;-60
2022/04/20 08:05:39;;;;;;;5.30;3.40;;;16.90;99.90;;;;;;5076887;28;20551;-61
2022/04/20 08:08:11;;;;;;;4.20;3.80;;;17.00;99.90;;;;;;5076713;28;20765;-60
2022/04/20 08:10:39;;;;;;;4.10;3.73;;;17.10;99.90;;;;;;5077369;28;20553;-61
2022/04/20 08:15:48;;;;;;;3.70;3.40;;;16.90;99.90;;;;;;5076121;28;20446;-61
2022/04/20 08:18:15;;;;;;;4.00;3.70;;;16.90;99.90;;;;;;5078974;28;20556;-60
2022/04/20 08:20:47;;;;;;;5.20;3.80;;;17.30;99.90;;;;;;5080699;28;20461;-61
2022/04/20 08:23:14;;;;;;;4.57;4.17;;;17.70;99.90;;;;;;5081256;28;20764;-61
2022/04/20 08:25:44;;;;;;;3.67;3.37;;;18.00;99.90;;;;;;5080099;28;20558;-61
2022/04/20 08:28:20;;;;;;;4.40;3.60;;;17.60;99.90;;;;;;5060376;28;20519;-61
2022/04/20 08:30:50;;;;;;;3.80;3.50;;;17.70;99.90;;;;;;5067175;28;20460;-61
2022/04/20 08:33:17;;;;;;;4.00;3.57;;;17.80;99.90;;;;;;5080667;28;20476;-60
2022/04/20 08:35:50;;;;;;;4.13;3.10;;;17.70;99.90;;;;;;5081139;28;20745;-60
2022/04/20 08:38:17;;;;;;;3.93;3.63;;;17.90;99.90;;;;;;5080046;28;20534;-61
2022/04/20 08:40:47;;;;;;;4.53;4.13;;;17.90;99.90;;;;;;5080271;28;20587;-61
2022/04/20 08:43:15;;;;;;;3.73;3.23;;;18.20;99.90;;;;;;5081179;28;20544;-61
2022/04/20 08:45:47;;;;;;;4.00;3.70;;;18.00;99.90;;;;;;5080682;28;20525;-61
2022/04/20 08:48:14;;;;;;;6.00;3.93;;;18.10;99.90;;;;;;5079812;28;20461;-60
2022/04/20 08:50:41;;;;;;;4.00;3.40;;;17.90;99.90;;;;;;5080351;28;20956;-61
2022/04/20 08:53:12;;;;;;;4.60;3.60;;;17.80;99.90;;;;;;5079861;28;20551;-60
2022/04/20 08:55:40;;;;;;;3.93;3.27;;;18.10;99.90;;;;;;5080371;28;20457;-60
2022/04/20 08:58:09;;;;;;;5.30;2.70;;;18.00;99.90;;;;;;5079757;28;20458;-60
2022/04/20 09:00:36;;;;;;;3.50;3.20;;;17.90;99.90;;;;;;5079101;28;20523;-61
2022/04/20 09:03:17;;;;;;;3.80;3.50;;;18.10;99.90;;;;;;5078986;28;20457;-61
2022/04/20 09:05:46;;;;;;;3.60;3.30;;;18.40;99.90;;;;;;5080214;28;20488;-60
2022/04/20 09:08:22;;;;;;;7.07;3.57;;;18.60;99.90;;;;;;5077423;28;20647;-61
2022/04/20 09:10:54;;;;;;;3.87;3.47;;;18.70;99.90;;;;;;5067505;28;20511;-61
2022/04/20 09:13:32;;;;;;;3.37;3.17;;;18.90;99.90;;;;;;5080019;28;20756;-61
2022/04/20 09:16:09;;;;;;;3.70;3.40;;;18.80;99.90;;;;;;5080055;28;20493;-60
2022/04/20 09:18:41;;;;;;;3.47;3.17;;;18.50;99.90;;;;;;5078088;28;20464;-60
2022/04/20 09:21:13;;;;;;;3.83;3.43;;;18.90;99.90;;;;;;5078538;28;20770;-61
2022/04/20 09:23:44;;;;;;;3.60;2.93;;;19.00;99.90;;;;;;5078500;28;20457;-61
2022/04/20 09:26:16;;;;;;;3.60;3.30;;;19.10;99.90;;;;;;5078329;28;20489;-61
2022/04/20 09:29:08;;;;;;;5.33;4.00;;;19.30;99.90;;;;;;5077895;28;20842;-61
2022/04/20 09:31:46;;;;;;;4.20;3.23;;;19.40;99.90;;;;;;5079671;28;20913;-61
2022/04/20 09:34:34;;;;;;;6.63;3.17;;;19.60;99.90;;;;;;5078086;28;20826;-61
2022/04/20 09:37:14;;;;;;;4.47;4.07;;;19.80;99.90;;;;;;5078511;28;20457;-61
2022/04/20 09:39:47;;;;;;;5.93;3.67;;;19.70;99.90;;;;;;5078333;28;20493;-61
2022/04/20 09:42:16;;;;;;;4.00;3.60;;;19.90;99.90;;;;;;5079493;28;20461;-61
2022/04/20 09:44:55;;;;;;;4.70;3.80;;;20.20;99.90;;;;;;5077277;28;20542;-61
2022/04/20 09:50:19;;;;;;;4.23;3.83;;;20.10;99.90;;;;;;5073808;28;20507;-61
2022/04/20 09:52:54;;;;;;;4.73;4.27;;;20.00;99.90;;;;;;5078443;28;20460;-60
2022/04/20 09:55:31;;;;;;;4.20;3.60;;;20.00;99.90;;;;;;5079108;28;20460;-61
2022/04/20 09:58:15;;;;;;;5.13;4.10;;;20.00;99.90;;;;;;5078980;28;20453;-61
2022/04/20 10:00:50;;;;;;;4.83;3.90;;;19.90;99.90;;;;;;5075181;28;20513;-61
2022/04/20 10:03:25;;;;;;;4.83;3.90;;;19.80;99.90;;;;;;5078922;28;20461;-61
2022/04/20 10:05:56;;;;;;;4.60;4.00;;;19.40;99.90;;;;;;5077888;28;21016;-61
2022/04/20 10:08:27;;;;;;;5.20;4.70;;;19.20;99.90;;;;;;5078178;28;20555;-61
2022/04/20 10:10:55;;;;;;;5.53;3.87;;;19.20;99.90;;;;;;5076016;28;20537;-61
2022/04/20 10:13:23;;;;;;;4.10;3.77;;;19.90;99.90;;;;;;5077658;28;20515;-61
2022/04/20 10:16:08;;;;;;;7.60;4.10;;;20.40;99.90;;;;;;5076946;28;20489;-60
2022/04/20 10:18:38;;;;;;;5.87;3.90;;;20.30;99.90;;;;;;5071365;28;20898;-61
2022/04/20 10:21:08;;;;;;;5.67;3.70;;;20.20;99.90;;;;;;5077495;28;20534;-61
2022/04/20 10:23:35;;;;;;;4.20;3.90;;;20.40;99.90;;;;;;5076374;28;20967;-61
2022/04/20 10:26:11;;;;;;;5.30;4.80;;;20.20;99.90;;;;;;5075188;28;20806;-61
2022/04/20 10:28:49;;;;;;;4.50;3.50;;;19.80;99.90;;;;;;5089364;28;20501;-61
2022/04/20 10:31:32;;;;;;;3.97;3.70;;;19.80;99.90;;;;;;5076815;28;20476;-61
2022/04/20 10:34:02;;;;;;;4.17;3.77;;;20.60;99.90;;;;;;5077459;28;20522;-61
2022/04/20 10:36:31;;;;;;;4.53;4.23;;;21.40;99.90;;;;;;5078026;28;20881;-61
2022/04/20 10:39:23;;;;;;;4.87;4.00;;;21.20;99.90;;;;;;5077383;28;20752;-61
2022/04/20 10:42:21;;;;;;;4.93;4.43;;;21.10;99.90;;;;;;5075832;28;20745;-61
2022/04/20 10:45:01;;;;;;;7.03;3.63;;;20.40;99.90;;;;;;5078064;28;20578;-61
2022/04/20 10:47:34;;;;;;;4.27;3.87;;;19.10;99.90;;;;;;5075465;28;20480;-61
2022/04/20 10:50:18;;;;;;;4.30;4.00;;;19.00;99.90;;;;;;5074038;28;20469;-61
2022/04/20 10:52:52;;;;;;;3.77;3.47;;;20.00;99.90;;;;;;5074447;28;20912;-61
2022/04/20 10:55:49;;;;;;;5.50;4.40;;;20.60;99.90;;;;;;5075909;28;20460;-61
2022/04/20 10:58:22;;;;;;;5.00;4.30;;;20.60;99.90;;;;;;5074620;28;20786;-61
2022/04/20 11:01:09;;;;;;;4.53;4.23;;;19.00;99.90;;;;;;5076701;28;20515;-61
2022/04/20 11:04:07;;;;;;;5.53;4.57;;;19.80;99.90;;;;;;5075567;28;20909;-61
2022/04/20 11:07:20;;;;;;;4.50;4.10;;;20.00;99.90;;;;;;5077336;28;20500;-61
2022/04/20 11:09:49;;;;;;;5.23;3.73;;;20.30;99.90;;;;;;4994266;28;20768;-61
2022/04/20 11:18:42;;;;;;;4.60;4.20;;;21.10;99.90;;;;;;5072737;28;21725;-61
2022/04/20 11:21:21;;;;;;;4.93;4.33;;;21.10;99.90;;;;;;5057260;28;20803;-61
2022/04/20 11:23:59;;;;;;;4.80;4.30;;;21.20;99.90;;;;;;5057854;28;20457;-61
2022/04/20 11:26:31;;;;;;;7.50;3.90;;;21.00;99.90;;;;;;5057154;28;20872;-61
2022/04/20 11:29:08;;;;;;;4.90;4.00;;;21.00;99.90;;;;;;5066556;28;20453;-61
2022/04/20 11:31:37;;;;;;;4.43;4.13;;;20.90;99.90;;;;;;5077331;28;20461;-61
2022/04/20 11:34:05;;;;;;;3.80;3.50;;;21.40;99.90;;;;;;5077231;28;20552;-61
2022/04/20 11:36:35;;;;;;;4.70;4.40;;;21.40;99.90;;;;;;5076918;28;20523;-61
2022/04/20 11:39:09;;;;;;;4.40;4.00;;;21.50;99.90;;;;;;5076672;28;20808;-61
2022/04/20 11:41:36;;;;;;;5.13;4.73;;;21.90;99.90;;;;;;5077150;28;20489;-61
2022/04/20 11:44:08;;;;;;;4.57;4.17;;;21.70;99.90;;;;;;5076940;28;20754;-61
2022/04/20 11:46:39;;;;;;;4.27;3.87;;;20.70;99.90;;;;;;5077282;28;20493;-61
2022/04/20 11:49:11;;;;;;;4.43;4.13;;;19.80;99.90;;;;;;5076550;28;21627;-61
2022/04/20 11:51:52;;;;;;;4.67;4.27;;;19.60;99.90;;;;;;5076723;28;20461;-61
2022/04/20 11:54:25;;;;;;;4.70;4.30;;;19.70;99.90;;;;;;5076330;28;20582;-61
2022/04/20 11:56:58;;;;;;;4.53;4.17;;;19.60;99.90;;;;;;5076444;28;20453;-61
2022/04/20 11:59:29;;;;;;;4.90;4.40;;;20.30;99.90;;;;;;5076496;28;20489;-61
2022/04/20 12:01:58;;;;;;;4.50;4.10;;;21.50;99.90;;;;;;5076030;28;20496;-61
2022/04/20 12:04:29;;;;;;;6.80;5.00;;;22.40;99.90;;;;;;5076744;28;20540;-60
2022/04/20 12:07:00;;;;;;;5.87;5.30;;;22.00;99.90;;;;;;5068896;28;20498;-60
2022/04/20 12:09:30;;;;;;;6.23;5.70;;;22.10;99.90;;;;;;5056909;28;20466;-61
2022/04/20 12:12:01;;;;;;;7.50;4.70;;;21.70;99.90;;;;;;5075681;28;20558;-61
2022/04/20 12:14:34;;;;;;;5.40;5.00;;;22.20;99.90;;;;;;5076738;28;20461;-60
2022/04/20 12:17:07;;;;;;;6.00;5.40;;;22.00;99.90;;;;;;5076639;28;20904;-61
2022/04/20 12:19:35;;;;;;;5.70;5.03;;;21.30;99.90;;;;;;5077076;28;20469;-61
2022/04/20 12:22:09;;;;;;;5.20;4.80;;;21.50;99.90;;;;;;5076486;28;20493;-61
2022/04/20 12:24:42;;;;;;;5.53;5.03;;;22.20;99.90;;;;;;5076773;28;20468;-61
2022/04/20 12:27:17;;;;;;;5.80;5.07;;;21.60;99.90;;;;;;5076534;28;20496;-61
2022/04/20 12:29:44;;;;;;;5.10;4.63;;;20.00;99.90;;;;;;5076924;28;20563;-61
2022/04/20 12:32:11;;;;;;;5.17;4.57;;;20.70;99.90;;;;;;5075935;28;20467;-61
2022/04/20 12:34:53;;;;;;;6.03;5.47;;;21.00;99.90;;;;;;5076577;28;20457;-61
2022/04/20 12:37:29;;;;;;;6.63;5.00;;;21.60;99.90;;;;;;5076816;28;20539;-61
2022/04/20 12:39:56;;;;;;;5.23;4.73;;;22.30;99.90;;;;;;5073991;28;20492;-61
2022/04/20 12:42:23;;;;;;;6.70;5.10;;;22.40;99.90;;;;;;5075921;28;20515;-61
2022/04/20 12:45:05;;;;;;;5.57;5.17;;;22.20;99.90;;;;;;5076302;28;20469;-61
2022/04/20 12:47:41;;;;;;;6.60;5.37;;;22.20;99.90;;;;;;5074705;28;20771;-61
2022/04/20 12:50:24;;;;;;;6.30;5.70;;;22.30;99.90;;;;;;5077029;28;20508;-61
2022/04/20 12:53:00;;;;;;;5.70;5.20;;;21.80;99.90;;;;;;5076441;28;20465;-60
2022/04/20 12:55:39;;;;;;;5.23;4.83;;;21.40;99.90;;;;;;5076278;28;20490;-61
2022/04/20 13:03:50;;;;;;;6.03;5.43;;;21.90;99.90;;;;;;5077750;28;20460;-61
2022/04/20 13:06:22;;;;;;;5.93;5.43;;;21.50;99.90;;;;;;5079086;28;20945;-61
2022/04/20 13:08:51;;;;;;;5.03;4.50;;;22.00;99.90;;;;;;5075871;28;20472;-61
2022/04/20 13:11:18;;;;;;;6.20;5.30;;;22.60;99.90;;;;;;5079582;28;20894;-61
2022/04/20 13:13:45;;;;;;;6.50;5.67;;;22.30;99.90;;;;;;5079870;28;20555;-60
2022/04/20 13:16:12;;;;;;;5.30;4.90;;;22.10;99.90;;;;;;5079341;28;20461;-60
2022/04/20 13:18:41;;;;;;;7.03;5.80;;;21.60;99.90;;;;;;5079300;28;20461;-61
2022/04/20 13:21:12;;;;;;;6.13;5.53;;;21.20;99.90;;;;;;5079713;28;20482;-60
2022/04/20 13:23:39;;;;;;;5.10;4.70;;;21.80;99.90;;;;;;5077812;28;20469;-61
2022/04/20 13:29:01;;;;;;;7.80;5.07;;;22.50;99.90;;;;;;5078129;28;20465;-61
2022/04/20 13:31:29;;;;;;;4.93;4.43;;;21.20;99.90;;;;;;5079704;28;20461;-61
2022/04/20 13:33:56;;;;;;;5.43;4.87;;;21.80;99.90;;;;;;5079369;28;20530;-60
2022/04/20 13:36:27;;;;;;;5.27;4.77;;;21.90;99.90;;;;;;5077269;28;20461;-61
2022/04/20 13:39:02;;;;;;;5.07;4.67;;;21.80;99.90;;;;;;5078810;28;20481;-61
2022/04/20 13:41:38;;;;;;;5.10;4.60;;;22.00;99.90;;;;;;5078383;28;20493;-61
2022/04/20 13:44:08;;;;;;;4.90;4.50;;;21.90;99.90;;;;;;5069468;28;20470;-60
2022/04/20 13:46:38;;;;;;;5.30;4.80;;;21.90;99.90;;;;;;5080159;28;20496;-61
2022/04/20 13:49:05;;;;;;;5.50;5.10;;;22.20;99.90;;;;;;5072412;28;20554;-61
2022/04/20 13:51:32;;;;;;;4.97;4.57;;;21.70;99.90;;;;;;5077797;28;20518;-61
2022/04/20 13:54:04;;;;;;;5.13;4.70;;;21.80;99.90;;;;;;5065585;28;20497;-60
2022/04/20 13:56:40;;;;;;;5.87;5.20;;;21.80;99.90;;;;;;5077805;28;20453;-60
2022/04/20 13:59:13;;;;;;;8.03;5.00;;;21.50;99.90;;;;;;5078672;28;20509;-60